Rechercher aéroport 
image banner adimage banner ad
image banner ad

FYML - Mariental

Situé à Mariental, Namibia

ICAO - FYML, IATA -

Données fournies par Airmate  

Information générale

Coordonnées: S24°36'15" E17°55'30"
Élévation : 3650 feet MSL.
 
Voir autres Aéroports à Hardap

Données opérationnelles

Accessible au public
Heure actuelle UTC:
Heure actuelle locale:
Météo
METAR: FYML 211500Z AUTO 10003KT //// // ////// 37/07 Q1015
Voir NOTAMs / SUP AIP / TFR affectant cet aéroport [VIEW]
Fréquences de communication: [VIEW]

Pistes:

Identifiant RWYQFULongueur (ft)Largeur (ft)SurfaceLDA (ft)
01350°656282ASP
19656282
12492198
30492198

Coordonnées de l'aéroport

Adresse: Mariental Namibia

Vue satellite de FYML